sensor_id;sensor_type;location;lat;lon;timestamp;pressure;altitude;pressure_sealevel;temperature;humidity
47154;BME280;32907;41.412;2.164;2023-03-03T00:00:05;100605.28;;;16.91;28.09
47154;BME280;32907;41.412;2.164;2023-03-03T00:02:39;100616.91;;;16.92;27.83
47154;BME280;32907;41.412;2.164;2023-03-03T00:05:07;100624.25;;;16.96;27.74
47154;BME280;32907;41.412;2.164;2023-03-03T00:07:36;100593.88;;;16.69;28.05
47154;BME280;32907;41.412;2.164;2023-03-03T00:10:04;100652.19;;;17.12;28.13
47154;BME280;32907;41.412;2.164;2023-03-03T00:12:46;100645.16;;;17.11;28.27
47154;BME280;32907;41.412;2.164;2023-03-03T00:15:20;100650.84;;;17.10;27.99
47154;BME280;32907;41.412;2.164;2023-03-03T00:17:53;100647.03;;;17.05;28.14
47154;BME280;32907;41.412;2.164;2023-03-03T00:20:27;100625.34;;;16.95;27.96
47154;BME280;32907;41.412;2.164;2023-03-03T00:23:12;100632.94;;;17.03;28.08
47154;BME280;32907;41.412;2.164;2023-03-03T00:25:45;100604.44;;;16.75;27.75
47154;BME280;32907;41.412;2.164;2023-03-03T00:28:24;100634.81;;;16.98;28.03
47154;BME280;32907;41.412;2.164;2023-03-03T00:30:56;100550.19;;;16.45;28.30
47154;BME280;32907;41.412;2.164;2023-03-03T00:33:40;100639.97;;;16.94;27.74
47154;BME280;32907;41.412;2.164;2023-03-03T00:38:48;100632.94;;;16.93;27.85
47154;BME280;32907;41.412;2.164;2023-03-03T00:41:25;100602.00;;;16.69;27.82
47154;BME280;32907;41.412;2.164;2023-03-03T00:43:53;100636.69;;;16.87;27.97
47154;BME280;32907;41.412;2.164;2023-03-03T00:46:22;100592.19;;;16.63;28.02
47154;BME280;32907;41.412;2.164;2023-03-03T00:48:51;100546.63;;;16.34;27.93
47154;BME280;32907;41.412;2.164;2023-03-03T00:51:30;100625.31;;;16.80;27.75
47154;BME280;32907;41.412;2.164;2023-03-03T00:53:59;100591.66;;;16.61;27.86
47154;BME280;32907;41.412;2.164;2023-03-03T00:56:29;100615.00;;;16.77;27.58
47154;BME280;32907;41.412;2.164;2023-03-03T00:59:01;100567.75;;;16.37;27.57
47154;BME280;32907;41.412;2.164;2023-03-03T01:01:30;100631.00;;;16.78;27.73
47154;BME280;32907;41.412;2.164;2023-03-03T01:03:58;100628.00;;;16.80;27.79
47154;BME280;32907;41.412;2.164;2023-03-03T01:06:26;100621.78;;;16.80;27.90
47154;BME280;32907;41.412;2.164;2023-03-03T01:08:55;100599.78;;;16.66;27.42
47154;BME280;32907;41.412;2.164;2023-03-03T01:11:25;100539.81;;;16.27;27.63
47154;BME280;32907;41.412;2.164;2023-03-03T01:13:55;100604.91;;;16.62;27.50
47154;BME280;32907;41.412;2.164;2023-03-03T01:16:26;100597.31;;;16.54;27.75
47154;BME280;32907;41.412;2.164;2023-03-03T01:18:54;100550.94;;;16.35;27.73
47154;BME280;32907;41.412;2.164;2023-03-03T01:21:22;100591.63;;;16.56;27.51
47154;BME280;32907;41.412;2.164;2023-03-03T01:23:51;100602.53;;;16.71;27.61
47154;BME280;32907;41.412;2.164;2023-03-03T01:26:20;100548.25;;;16.35;27.87
47154;BME280;32907;41.412;2.164;2023-03-03T01:28:49;100586.78;;;16.63;27.72
47154;BME280;32907;41.412;2.164;2023-03-03T01:31:17;100600.09;;;16.69;27.82
47154;BME280;32907;41.412;2.164;2023-03-03T01:33:45;100551.50;;;16.32;27.95
47154;BME280;32907;41.412;2.164;2023-03-03T01:36:13;100602.47;;;16.61;28.15
47154;BME280;32907;41.412;2.164;2023-03-03T01:38:42;100599.00;;;16.70;28.00
47154;BME280;32907;41.412;2.164;2023-03-03T01:41:10;100540.41;;;16.34;28.03
47154;BME280;32907;41.412;2.164;2023-03-03T01:43:43;100556.66;;;16.39;27.92
47154;BME280;32907;41.412;2.164;2023-03-03T01:49:06;100542.81;;;16.25;27.89
47154;BME280;32907;41.412;2.164;2023-03-03T01:51:44;100597.59;;;16.58;28.10
47154;BME280;32907;41.412;2.164;2023-03-03T01:54:19;100591.09;;;16.54;28.14
47154;BME280;32907;41.412;2.164;2023-03-03T01:56:53;100600.56;;;16.56;28.02
47154;BME280;32907;41.412;2.164;2023-03-03T01:59:27;100549.03;;;16.26;27.84
47154;BME280;32907;41.412;2.164;2023-03-03T02:01:56;100587.56;;;16.53;28.15
47154;BME280;32907;41.412;2.164;2023-03-03T02:04:25;100594.34;;;16.56;28.24
47154;BME280;32907;41.412;2.164;2023-03-03T02:06:58;100495.09;;;15.99;28.39
47154;BME280;32907;41.412;2.164;2023-03-03T02:09:58;100514.03;;;16.04;28.02
47154;BME280;32907;41.412;2.164;2023-03-03T02:12:56;100581.03;;;16.49;28.23
47154;BME280;32907;41.412;2.164;2023-03-03T02:15:33;100558.00;;;16.31;28.09
47154;BME280;32907;41.412;2.164;2023-03-03T02:18:11;100579.16;;;16.44;28.24
47154;BME280;32907;41.412;2.164;2023-03-03T02:23:21;100563.94;;;16.33;28.50
47154;BME280;32907;41.412;2.164;2023-03-03T02:29:06;100548.25;;;16.30;28.24
47154;BME280;32907;41.412;2.164;2023-03-03T02:31:36;100556.63;;;16.29;28.24
47154;BME280;32907;41.412;2.164;2023-03-03T02:34:05;100561.75;;;16.25;28.61
47154;BME280;32907;41.412;2.164;2023-03-03T02:36:38;100499.94;;;15.91;28.57
47154;BME280;32907;41.412;2.164;2023-03-03T02:39:15;100567.69;;;16.27;28.50
47154;BME280;32907;41.412;2.164;2023-03-03T02:41:58;100541.41;;;16.12;28.90
47154;BME280;32907;41.412;2.164;2023-03-03T02:44:36;100565.00;;;16.27;28.88
47154;BME280;32907;41.412;2.164;2023-03-03T02:47:04;100563.38;;;16.26;28.72
47154;BME280;32907;41.412;2.164;2023-03-03T02:49:34;100566.09;;;16.31;28.81
47154;BME280;32907;41.412;2.164;2023-03-03T02:52:06;100559.03;;;16.25;28.50
47154;BME280;32907;41.412;2.164;2023-03-03T02:54:38;100484.19;;;15.78;28.56
47154;BME280;32907;41.412;2.164;2023-03-03T02:57:07;100510.53;;;16.03;28.70
47154;BME280;32907;41.412;2.164;2023-03-03T02:59:35;100558.00;;;16.31;28.99
47154;BME280;32907;41.412;2.164;2023-03-03T03:02:16;100550.66;;;16.27;28.95
47154;BME280;32907;41.412;2.164;2023-03-03T03:04:46;100536.59;;;16.25;28.88
47154;BME280;32907;41.412;2.164;2023-03-03T03:07:18;100548.19;;;16.20;28.53
47154;BME280;32907;41.412;2.164;2023-03-03T03:09:46;100557.75;;;16.38;28.73
47154;BME280;32907;41.412;2.164;2023-03-03T03:12:14;100513.00;;;16.05;29.09
47154;BME280;32907;41.412;2.164;2023-03-03T03:14:51;100530.88;;;16.16;29.28
47154;BME280;32907;41.412;2.164;2023-03-03T03:17:19;100511.34;;;15.99;29.08
47154;BME280;32907;41.412;2.164;2023-03-03T03:19:48;100525.72;;;16.19;28.91
47154;BME280;32907;41.412;2.164;2023-03-03T03:22:16;100563.97;;;16.38;29.06
47154;BME280;32907;41.412;2.164;2023-03-03T03:24:46;100524.88;;;16.09;28.95
47154;BME280;32907;41.412;2.164;2023-03-03T03:27:15;100547.13;;;16.21;29.19
47154;BME280;32907;41.412;2.164;2023-03-03T03:29:47;100526.00;;;16.13;29.09
47154;BME280;32907;41.412;2.164;2023-03-03T03:32:15;100519.75;;;16.07;29.34
47154;BME280;32907;41.412;2.164;2023-03-03T03:34:45;100507.50;;;15.94;29.08
47154;BME280;32907;41.412;2.164;2023-03-03T03:37:13;100523.25;;;16.08;29.41
47154;BME280;32907;41.412;2.164;2023-03-03T03:39:44;100562.28;;;16.27;29.62
47154;BME280;32907;41.412;2.164;2023-03-03T03:42:16;100552.00;;;16.24;29.75
47154;BME280;32907;41.412;2.164;2023-03-03T03:44:45;100546.84;;;16.17;29.36
47154;BME280;32907;41.412;2.164;2023-03-03T03:47:14;100546.63;;;16.29;29.30
47154;BME280;32907;41.412;2.164;2023-03-03T03:49:42;100507.03;;;16.08;29.42
47154;BME280;32907;41.412;2.164;2023-03-03T03:52:10;100505.69;;;16.10;29.39
47154;BME280;32907;41.412;2.164;2023-03-03T03:54:40;100517.06;;;16.17;29.45
47154;BME280;32907;41.412;2.164;2023-03-03T03:57:08;100417.59;;;15.57;29.40
47154;BME280;32907;41.412;2.164;2023-03-03T03:59:36;100530.38;;;16.29;29.49
47154;BME280;32907;41.412;2.164;2023-03-03T04:02:06;100529.31;;;16.30;29.45
47154;BME280;32907;41.412;2.164;2023-03-03T04:04:34;100509.22;;;16.16;29.53
47154;BME280;32907;41.412;2.164;2023-03-03T04:07:04;100467.19;;;15.88;29.56
47154;BME280;32907;41.412;2.164;2023-03-03T04:09:33;100462.88;;;15.87;29.49
47154;BME280;32907;41.412;2.164;2023-03-03T04:12:01;100513.28;;;16.18;29.58
47154;BME280;32907;41.412;2.164;2023-03-03T04:14:30;100504.09;;;16.14;29.38
47154;BME280;32907;41.412;2.164;2023-03-03T04:16:59;100506.00;;;16.14;29.47
47154;BME280;32907;41.412;2.164;2023-03-03T04:19:27;100530.91;;;16.26;29.19
47154;BME280;32907;41.412;2.164;2023-03-03T04:21:55;100452.28;;;15.75;29.48
47154;BME280;32907;41.412;2.164;2023-03-03T04:24:23;100470.16;;;15.81;29.65
47154;BME280;32907;41.412;2.164;2023-03-03T04:26:52;100489.66;;;15.93;29.39
47154;BME280;32907;41.412;2.164;2023-03-03T04:29:21;100498.88;;;15.92;29.87
47154;BME280;32907;41.412;2.164;2023-03-03T04:31:49;100377.09;;;15.09;29.72
47154;BME280;32907;41.412;2.164;2023-03-03T04:34:18;100498.81;;;15.87;29.67
47154;BME280;32907;41.412;2.164;2023-03-03T04:36:46;100525.94;;;16.03;29.58
47154;BME280;32907;41.412;2.164;2023-03-03T04:39:14;100531.94;;;16.10;29.56
47154;BME280;32907;41.412;2.164;2023-03-03T04:41:42;100524.88;;;16.09;29.63
47154;BME280;32907;41.412;2.164;2023-03-03T04:44:10;100540.63;;;16.17;29.64
47154;BME280;32907;41.412;2.164;2023-03-03T04:46:38;100493.44;;;15.92;29.73
47154;BME280;32907;41.412;2.164;2023-03-03T04:49:06;100465.25;;;15.78;29.56
47154;BME280;32907;41.412;2.164;2023-03-03T04:51:39;100495.69;;;16.06;29.86
47154;BME280;32907;41.412;2.164;2023-03-03T04:54:07;100451.22;;;15.76;29.95
47154;BME280;32907;41.412;2.164;2023-03-03T04:56:35;100526.31;;;16.27;29.77
47154;BME280;32907;41.412;2.164;2023-03-03T04:59:03;100528.19;;;16.26;29.85
47154;BME280;32907;41.412;2.164;2023-03-03T05:01:32;100500.56;;;16.14;30.15
47154;BME280;32907;41.412;2.164;2023-03-03T05:04:00;100473.19;;;16.00;30.16
47154;BME280;32907;41.412;2.164;2023-03-03T05:06:28;100449.09;;;15.88;30.22
47154;BME280;32907;41.412;2.164;2023-03-03T05:08:56;100485.97;;;16.15;29.67
47154;BME280;32907;41.412;2.164;2023-03-03T05:11:24;100525.25;;;16.43;29.73
47154;BME280;32907;41.412;2.164;2023-03-03T05:13:52;100431.78;;;15.84;29.79
47154;BME280;32907;41.412;2.164;2023-03-03T05:16:20;100523.63;;;16.42;29.95
47154;BME280;32907;41.412;2.164;2023-03-03T05:18:49;100497.63;;;16.20;29.88
47154;BME280;32907;41.412;2.164;2023-03-03T05:21:17;100529.88;;;16.42;29.81
47154;BME280;32907;41.412;2.164;2023-03-03T05:23:45;100484.84;;;16.11;29.65
47154;BME280;32907;41.412;2.164;2023-03-03T05:26:13;100523.34;;;16.33;29.69
47154;BME280;32907;41.412;2.164;2023-03-03T05:28:41;100520.06;;;16.26;29.69
47154;BME280;32907;41.412;2.164;2023-03-03T05:31:09;100530.13;;;16.31;29.68
47154;BME280;32907;41.412;2.164;2023-03-03T05:33:37;100483.47;;;16.03;29.80
47154;BME280;32907;41.412;2.164;2023-03-03T05:36:05;100507.31;;;16.06;30.13
47154;BME280;32907;41.412;2.164;2023-03-03T05:38:33;100507.00;;;16.03;30.12
47154;BME280;32907;41.412;2.164;2023-03-03T05:41:01;100502.72;;;16.07;30.33
47154;BME280;32907;41.412;2.164;2023-03-03T05:43:28;100423.84;;;15.62;30.44
47154;BME280;32907;41.412;2.164;2023-03-03T05:45:57;100507.88;;;16.18;30.55
47154;BME280;32907;41.412;2.164;2023-03-03T05:48:26;100524.97;;;16.34;30.65
47154;BME280;32907;41.412;2.164;2023-03-03T05:50:58;100516.59;;;16.31;30.34
47154;BME280;32907;41.412;2.164;2023-03-03T05:53:29;100544.22;;;16.48;30.73
47154;BME280;32907;41.412;2.164;2023-03-03T05:55:57;100551.81;;;16.46;30.61
47154;BME280;32907;41.412;2.164;2023-03-03T05:58:25;100546.66;;;16.39;30.63
47154;BME280;32907;41.412;2.164;2023-03-03T06:00:53;100533.09;;;16.29;31.16
47154;BME280;32907;41.412;2.164;2023-03-03T06:03:21;100521.13;;;16.15;30.92
47154;BME280;32907;41.412;2.164;2023-03-03T06:05:49;100506.78;;;16.14;31.02
47154;BME280;32907;41.412;2.164;2023-03-03T06:08:17;100547.19;;;16.41;30.81
47154;BME280;32907;41.412;2.164;2023-03-03T06:10:45;100514.09;;;16.19;30.92
47154;BME280;32907;41.412;2.164;2023-03-03T06:13:17;100393.19;;;15.42;31.14
47154;BME280;32907;41.412;2.164;2023-03-03T06:15:45;100400.50;;;15.46;31.54
47154;BME280;32907;41.412;2.164;2023-03-03T06:18:13;100569.94;;;16.50;31.89
47154;BME280;32907;41.412;2.164;2023-03-03T06:20:41;100527.41;;;16.36;32.10
47154;BME280;32907;41.412;2.164;2023-03-03T06:23:09;100516.31;;;16.32;33.01
47154;BME280;32907;41.412;2.164;2023-03-03T06:25:38;100562.41;;;16.63;33.03
47154;BME280;32907;41.412;2.164;2023-03-03T06:28:06;100558.59;;;16.59;32.75
47154;BME280;32907;41.412;2.164;2023-03-03T06:30:34;100537.47;;;16.45;32.85
47154;BME280;32907;41.412;2.164;2023-03-03T06:33:04;100564.09;;;16.69;32.03
47154;BME280;32907;41.412;2.164;2023-03-03T06:35:32;100548.84;;;16.58;31.88
47154;BME280;32907;41.412;2.164;2023-03-03T06:38:01;100453.47;;;16.00;31.31
47154;BME280;32907;41.412;2.164;2023-03-03T06:40:29;100548.59;;;16.64;31.32
47154;BME280;32907;41.412;2.164;2023-03-03T06:42:57;100529.34;;;16.45;31.27
47154;BME280;32907;41.412;2.164;2023-03-03T06:45:25;100572.47;;;16.72;31.29
47154;BME280;32907;41.412;2.164;2023-03-03T06:47:53;100533.13;;;16.39;31.72
47154;BME280;32907;41.412;2.164;2023-03-03T06:50:21;100560.50;;;16.63;31.13
47154;BME280;32907;41.412;2.164;2023-03-03T06:53:01;100525.78;;;16.35;30.53
47154;BME280;32907;41.412;2.164;2023-03-03T06:55:35;100515.78;;;16.30;30.92
47154;BME280;32907;41.412;2.164;2023-03-03T06:58:13;100575.94;;;16.68;31.25
47154;BME280;32907;41.412;2.164;2023-03-03T07:00:43;100587.09;;;16.71;31.21
47154;BME280;32907;41.412;2.164;2023-03-03T07:03:17;100539.88;;;16.42;31.11
47154;BME280;32907;41.412;2.164;2023-03-03T07:05:48;100587.91;;;16.72;31.07
47154;BME280;32907;41.412;2.164;2023-03-03T07:08:18;100595.78;;;16.78;30.88
47154;BME280;32907;41.412;2.164;2023-03-03T07:10:48;100580.81;;;16.66;30.55
47154;BME280;32907;41.412;2.164;2023-03-03T07:15:51;100559.94;;;16.51;31.11
47154;BME280;32907;41.412;2.164;2023-03-03T07:21:11;100574.84;;;16.54;30.90
47154;BME280;32907;41.412;2.164;2023-03-03T07:23:41;100611.75;;;16.70;30.71
47154;BME280;32907;41.412;2.164;2023-03-03T07:26:19;100604.91;;;16.67;30.98
47154;BME280;32907;41.412;2.164;2023-03-03T07:28:58;100605.25;;;16.71;31.02
47154;BME280;32907;41.412;2.164;2023-03-03T07:34:39;100501.59;;;16.03;30.60
47154;BME280;32907;41.412;2.164;2023-03-03T07:37:34;100617.97;;;16.75;30.29
47154;BME280;32907;41.412;2.164;2023-03-03T07:40:34;100594.88;;;16.58;30.33
47154;BME280;32907;41.412;2.164;2023-03-03T07:42:58;100603.53;;;16.55;30.75
47154;BME280;32907;41.412;2.164;2023-03-03T07:45:35;100628.56;;;16.77;30.62
47154;BME280;32907;41.412;2.164;2023-03-03T07:48:25;100601.38;;;16.57;30.37
47154;BME280;32907;41.412;2.164;2023-03-03T07:51:02;100578.31;;;16.39;30.52
47154;BME280;32907;41.412;2.164;2023-03-03T07:53:33;100632.63;;;16.80;30.59
47154;BME280;32907;41.412;2.164;2023-03-03T07:56:28;100646.41;;;16.83;30.70
47154;BME280;32907;41.412;2.164;2023-03-03T07:58:57;100646.69;;;16.82;30.92
47154;BME280;32907;41.412;2.164;2023-03-03T08:03:56;100655.38;;;16.89;31.17
47154;BME280;32907;41.412;2.164;2023-03-03T08:06:41;100652.13;;;16.92;31.73
47154;BME280;32907;41.412;2.164;2023-03-03T08:11:52;100654.03;;;16.96;32.05
47154;BME280;32907;41.412;2.164;2023-03-03T08:14:27;100628.28;;;16.84;32.02
47154;BME280;32907;41.412;2.164;2023-03-03T08:16:57;100549.63;;;16.38;31.55
47154;BME280;32907;41.412;2.164;2023-03-03T08:19:30;100655.16;;;17.05;31.82
47154;BME280;32907;41.412;2.164;2023-03-03T08:22:23;100650.00;;;17.04;32.24
47154;BME280;32907;41.412;2.164;2023-03-03T08:24:52;100596.88;;;16.77;31.97
47154;BME280;32907;41.412;2.164;2023-03-03T08:27:20;100658.16;;;17.19;32.37
47154;BME280;32907;41.412;2.164;2023-03-03T08:29:48;100662.50;;;17.20;32.45
47154;BME280;32907;41.412;2.164;2023-03-03T08:32:16;100662.22;;;17.22;32.03
47154;BME280;32907;41.412;2.164;2023-03-03T08:34:44;100644.59;;;17.14;32.42
47154;BME280;32907;41.412;2.164;2023-03-03T08:37:13;100671.44;;;17.31;31.93
47154;BME280;32907;41.412;2.164;2023-03-03T08:39:40;100620.19;;;16.99;32.00
47154;BME280;32907;41.412;2.164;2023-03-03T08:42:09;100660.34;;;17.17;31.52
47154;BME280;32907;41.412;2.164;2023-03-03T08:44:37;100682.84;;;17.33;31.84
47154;BME280;32907;41.412;2.164;2023-03-03T08:47:05;100633.50;;;17.11;32.27
47154;BME280;32907;41.412;2.164;2023-03-03T08:49:33;100660.34;;;17.27;32.32
47154;BME280;32907;41.412;2.164;2023-03-03T08:52:00;100653.56;;;17.30;32.81
47154;BME280;32907;41.412;2.164;2023-03-03T08:54:28;100634.03;;;17.18;31.99
47154;BME280;32907;41.412;2.164;2023-03-03T08:56:56;100688.00;;;17.55;32.68
47154;BME280;32907;41.412;2.164;2023-03-03T08:59:24;100679.88;;;17.60;32.36
47154;BME280;32907;41.412;2.164;2023-03-03T09:01:53;100592.84;;;17.05;31.88
47154;BME280;32907;41.412;2.164;2023-03-03T09:04:22;100672.53;;;17.55;32.13
47154;BME280;32907;41.412;2.164;2023-03-03T09:06:50;100694.25;;;17.60;31.46
47154;BME280;32907;41.412;2.164;2023-03-03T09:09:18;100643.28;;;17.27;30.63
47154;BME280;32907;41.412;2.164;2023-03-03T09:11:46;100630.22;;;17.14;31.33
47154;BME280;32907;41.412;2.164;2023-03-03T09:14:16;100689.91;;;17.59;31.42
47154;BME280;32907;41.412;2.164;2023-03-03T09:16:52;100693.97;;;17.62;31.10
47154;BME280;32907;41.412;2.164;2023-03-03T09:19:27;100697.22;;;17.64;31.54
47154;BME280;32907;41.412;2.164;2023-03-03T09:22:08;100701.31;;;17.67;31.32
47154;BME280;32907;41.412;2.164;2023-03-03T09:24:41;100673.09;;;17.52;30.84
47154;BME280;32907;41.412;2.164;2023-03-03T09:27:24;100652.22;;;17.38;31.04
47154;BME280;32907;41.412;2.164;2023-03-03T09:29:54;100691.28;;;17.67;30.92
47154;BME280;32907;41.412;2.164;2023-03-03T09:32:33;100680.69;;;17.60;30.87
47154;BME280;32907;41.412;2.164;2023-03-03T09:35:36;100697.50;;;17.68;31.02
47154;BME280;32907;41.412;2.164;2023-03-03T09:38:32;100701.59;;;17.70;31.03
47154;BME280;32907;41.412;2.164;2023-03-03T09:41:29;100699.41;;;17.72;31.31
47154;BME280;32907;41.412;2.164;2023-03-03T09:47:22;100700.25;;;17.73;31.12
47154;BME280;32907;41.412;2.164;2023-03-03T09:53:01;100692.66;;;17.75;31.47
47154;BME280;32907;41.412;2.164;2023-03-03T09:55:40;100702.97;;;17.83;31.89
47154;BME280;32907;41.412;2.164;2023-03-03T10:06:25;100689.38;;;18.08;32.39
47154;BME280;32907;41.412;2.164;2023-03-03T10:11:52;100614.53;;;17.67;32.54
47154;BME280;32907;41.412;2.164;2023-03-03T10:19:40;100690.16;;;18.19;31.66
47154;BME280;32907;41.412;2.164;2023-03-03T10:22:19;100666.03;;;18.02;32.19
47154;BME280;32907;41.412;2.164;2023-03-03T10:25:07;100673.63;;;18.10;32.50
47154;BME280;32907;41.412;2.164;2023-03-03T10:28:01;100694.22;;;18.27;32.92
47154;BME280;32907;41.412;2.164;2023-03-03T10:52:48;100661.38;;;18.18;32.41
47154;BME280;32907;41.412;2.164;2023-03-03T11:04:20;100695.78;;;18.48;32.84
47154;BME280;32907;41.412;2.164;2023-03-03T11:17:50;100670.03;;;18.35;30.26
47154;BME280;32907;41.412;2.164;2023-03-03T11:20:39;100649.72;;;18.12;29.75
47154;BME280;32907;41.412;2.164;2023-03-03T11:26:15;100696.38;;;18.30;30.20
47154;BME280;32907;41.412;2.164;2023-03-03T11:29:11;100692.59;;;18.26;29.88
47154;BME280;32907;41.412;2.164;2023-03-03T11:31:54;100673.63;;;18.10;29.87
47154;BME280;32907;41.412;2.164;2023-03-03T11:37:15;100679.84;;;18.11;30.17
47154;BME280;32907;41.412;2.164;2023-03-03T11:39:48;100627.00;;;17.78;30.80
47154;BME280;32907;41.412;2.164;2023-03-03T11:45:17;100689.63;;;18.22;31.17
47154;BME280;32907;41.412;2.164;2023-03-03T11:47:54;100688.53;;;18.23;31.57
47154;BME280;32907;41.412;2.164;2023-03-03T11:50:34;100685.00;;;18.23;31.46
47154;BME280;32907;41.412;2.164;2023-03-03T11:55:46;100671.72;;;18.21;31.23
47154;BME280;32907;41.412;2.164;2023-03-03T12:01:02;100679.28;;;18.29;30.76
47154;BME280;32907;41.412;2.164;2023-03-03T12:03:46;100673.06;;;18.29;31.09
47154;BME280;32907;41.412;2.164;2023-03-03T12:06:21;100672.78;;;18.30;30.87
47154;BME280;32907;41.412;2.164;2023-03-03T12:11:58;100664.34;;;18.32;30.75
47154;BME280;32907;41.412;2.164;2023-03-03T12:23:45;100647.53;;;18.20;30.12
47154;BME280;32907;41.412;2.164;2023-03-03T12:26:27;100668.72;;;18.23;29.79
47154;BME280;32907;41.412;2.164;2023-03-03T12:34:18;100647.03;;;18.07;30.10
47154;BME280;32907;41.412;2.164;2023-03-03T12:37:13;100626.72;;;17.95;30.38
47154;BME280;32907;41.412;2.164;2023-03-03T12:40:02;100656.25;;;18.16;30.11
47154;BME280;32907;41.412;2.164;2023-03-03T12:48:39;100658.69;;;18.18;30.16
47154;BME280;32907;41.412;2.164;2023-03-03T12:56:44;100640.50;;;18.18;30.20
47154;BME280;32907;41.412;2.164;2023-03-03T13:04:56;100634.53;;;18.16;30.37
47154;BME280;32907;41.412;2.164;2023-03-03T13:07:36;100628.56;;;18.14;30.54
47154;BME280;32907;41.412;2.164;2023-03-03T13:10:21;100637.25;;;18.16;30.38
47154;BME280;32907;41.412;2.164;2023-03-03T13:15:40;100623.69;;;18.16;30.65
47154;BME280;32907;41.412;2.164;2023-03-03T13:21:09;100594.16;;;18.00;30.73
47154;BME280;32907;41.412;2.164;2023-03-03T13:23:58;100546.19;;;17.70;30.86
47154;BME280;32907;41.412;2.164;2023-03-03T13:32:02;100615.22;;;18.28;31.45
47154;BME280;32907;41.412;2.164;2023-03-03T13:37:22;100618.19;;;18.27;30.63
47154;BME280;32907;41.412;2.164;2023-03-03T13:39:55;100608.72;;;18.24;30.42
47154;BME280;32907;41.412;2.164;2023-03-03T13:48:18;100608.97;;;18.28;30.68
47154;BME280;32907;41.412;2.164;2023-03-03T13:50:56;100598.44;;;18.21;30.40
47154;BME280;32907;41.412;2.164;2023-03-03T14:07:20;100562.41;;;18.05;29.94
47154;BME280;32907;41.412;2.164;2023-03-03T14:13:05;100590.47;;;18.35;30.45
47154;BME280;32907;41.412;2.164;2023-03-03T14:21:10;100560.16;;;18.17;30.18
47154;BME280;32907;41.412;2.164;2023-03-03T14:24:21;100538.50;;;18.07;30.11
47154;BME280;32907;41.412;2.164;2023-03-03T14:26:57;100574.75;;;18.37;30.45
47154;BME280;32907;41.412;2.164;2023-03-03T14:31:58;100567.19;;;18.24;30.25
47154;BME280;32907;41.412;2.164;2023-03-03T14:34:39;100512.00;;;17.79;29.62
47154;BME280;32907;41.412;2.164;2023-03-03T14:37:25;100591.06;;;18.32;30.32
47154;BME280;32907;41.412;2.164;2023-03-03T14:40:13;100594.28;;;18.34;30.56
47154;BME280;32907;41.412;2.164;2023-03-03T14:42:52;100558.59;;;18.06;30.63
47154;BME280;32907;41.412;2.164;2023-03-03T14:48:26;100575.63;;;18.22;30.44
47154;BME280;32907;41.412;2.164;2023-03-03T14:50:58;100596.47;;;18.37;30.53
47154;BME280;32907;41.412;2.164;2023-03-03T14:53:40;100587.78;;;18.35;31.00
47154;BME280;32907;41.412;2.164;2023-03-03T14:59:15;100535.56;;;17.99;31.34
47154;BME280;32907;41.412;2.164;2023-03-03T15:01:45;100545.53;;;18.08;31.43
47154;BME280;32907;41.412;2.164;2023-03-03T15:06:50;100567.78;;;18.15;31.85
47154;BME280;32907;41.412;2.164;2023-03-03T15:09:31;100592.97;;;18.31;31.95
47154;BME280;32907;41.412;2.164;2023-03-03T15:12:17;100573.72;;;18.23;31.48
47154;BME280;32907;41.412;2.164;2023-03-03T15:14:48;100533.66;;;17.94;31.59
47154;BME280;32907;41.412;2.164;2023-03-03T15:20:14;100585.09;;;18.30;31.86
47154;BME280;32907;41.412;2.164;2023-03-03T15:22:49;100583.47;;;18.29;31.80
47154;BME280;32907;41.412;2.164;2023-03-03T15:25:23;100581.56;;;18.29;31.77
47154;BME280;32907;41.412;2.164;2023-03-03T15:28:24;100515.28;;;17.76;32.16
47154;BME280;32907;41.412;2.164;2023-03-03T15:31:02;100590.81;;;18.23;32.14
47154;BME280;32907;41.412;2.164;2023-03-03T15:33:52;100587.81;;;18.25;32.53
47154;BME280;32907;41.412;2.164;2023-03-03T15:36:46;100590.53;;;18.25;32.66
47154;BME280;32907;41.412;2.164;2023-03-03T15:42:37;100574.00;;;18.21;33.25
47154;BME280;32907;41.412;2.164;2023-03-03T15:45:20;100553.41;;;18.10;33.25
47154;BME280;32907;41.412;2.164;2023-03-03T15:50:58;100581.31;;;18.21;33.87
47154;BME280;32907;41.412;2.164;2023-03-03T16:04:28;100584.06;;;18.15;33.44
47154;BME280;32907;41.412;2.164;2023-03-03T16:09:35;100586.78;;;18.10;33.71
47154;BME280;32907;41.412;2.164;2023-03-03T16:23:16;100585.63;;;18.27;38.07
47154;BME280;32907;41.412;2.164;2023-03-03T16:26:23;100553.44;;;18.05;35.52
47154;BME280;32907;41.412;2.164;2023-03-03T16:29:07;100597.56;;;18.31;35.70
47154;BME280;32907;41.412;2.164;2023-03-03T16:34:25;100590.25;;;18.26;35.21
47154;BME280;32907;41.412;2.164;2023-03-03T16:38:08;100561.31;;;18.06;34.96
47154;BME280;32907;41.412;2.164;2023-03-03T16:40:18;100598.41;;;18.26;34.74
47154;BME280;32907;41.412;2.164;2023-03-03T16:42:51;100579.16;;;18.17;35.54
47154;BME280;32907;41.412;2.164;2023-03-03T16:45:36;100600.28;;;18.31;35.80
47154;BME280;32907;41.412;2.164;2023-03-03T16:48:28;100528.28;;;17.84;36.04
47154;BME280;32907;41.412;2.164;2023-03-03T16:54:01;100582.97;;;18.11;35.00
47154;BME280;32907;41.412;2.164;2023-03-03T17:02:18;100565.69;;;17.92;34.22
47154;BME280;32907;41.412;2.164;2023-03-03T17:05:04;100620.97;;;18.22;34.84
47154;BME280;32907;41.412;2.164;2023-03-03T17:07:55;100632.06;;;18.30;34.43
47154;BME280;32907;41.412;2.164;2023-03-03T17:10:28;100625.00;;;18.29;34.11
47154;BME280;32907;41.412;2.164;2023-03-03T17:13:39;100633.16;;;18.29;34.04
47154;BME280;32907;41.412;2.164;2023-03-03T17:16:12;100637.22;;;18.27;33.09
47154;BME280;32907;41.412;2.164;2023-03-03T17:32:36;100577.09;;;17.63;31.96
47154;BME280;32907;41.412;2.164;2023-03-03T17:43:13;100673.88;;;18.19;32.81